createdAt,value
2017-06-29T00:00:41.027Z,21.98
2017-06-29T00:03:09.802Z,22.03
2017-06-29T00:05:38.167Z,21.96
2017-06-29T00:08:06.501Z,21.81
2017-06-29T00:10:35.189Z,21.79
2017-06-29T00:13:03.582Z,21.91
2017-06-29T00:15:31.907Z,21.73
2017-06-29T00:18:00.614Z,21.66
2017-06-29T00:20:28.939Z,21.67
2017-06-29T00:22:57.280Z,21.91
2017-06-29T00:25:25.947Z,21.96
2017-06-29T00:27:54.551Z,22.02
2017-06-29T00:30:22.878Z,22.03
2017-06-29T00:32:51.638Z,21.94
2017-06-29T00:35:19.983Z,21.92
2017-06-29T00:37:48.305Z,22.09
2017-06-29T00:40:16.966Z,22.08
2017-06-29T00:42:45.306Z,22.06
2017-06-29T00:45:13.641Z,22.03
2017-06-29T00:47:42.468Z,22.02
2017-06-29T00:50:10.856Z,22.03
2017-06-29T00:52:39.256Z,22.03
2017-06-29T00:55:08.169Z,21.98
2017-06-29T00:57:36.550Z,21.92
2017-06-29T01:00:04.908Z,21.91
2017-06-29T01:02:33.528Z,21.86
2017-06-29T01:05:01.857Z,21.87
2017-06-29T01:07:30.211Z,21.88
2017-06-29T01:09:59.669Z,21.75
2017-06-29T01:12:28.003Z,21.67
2017-06-29T01:14:57.127Z,21.65
2017-06-29T01:17:26.349Z,21.56
2017-06-29T01:19:54.680Z,21.59
2017-06-29T01:22:23.005Z,21.65
2017-06-29T01:24:51.645Z,21.53
2017-06-29T01:27:20.754Z,21.54
2017-06-29T01:29:49.846Z,21.55
2017-06-29T01:32:18.619Z,21.47
2017-06-29T01:34:46.984Z,21.39
2017-06-29T01:37:15.321Z,21.31
2017-06-29T01:39:44.281Z,21.24
2017-06-29T01:42:12.622Z,21.12
2017-06-29T01:44:40.960Z,20.93
2017-06-29T01:47:09.595Z,20.83
2017-06-29T01:49:37.933Z,20.74
2017-06-29T01:52:06.271Z,20.83
2017-06-29T01:54:34.926Z,20.81
2017-06-29T01:57:03.276Z,20.66
2017-06-29T01:59:31.612Z,20.62
2017-06-29T02:02:01.629Z,20.75
2017-06-29T02:04:29.967Z,20.70
2017-06-29T02:06:58.281Z,20.77
2017-06-29T02:09:27.905Z,20.89
2017-06-29T02:11:56.253Z,21.02
2017-06-29T02:14:24.615Z,20.94
2017-06-29T02:16:53.287Z,20.94
2017-06-29T02:19:21.624Z,20.65
2017-06-29T02:21:49.958Z,20.64
2017-06-29T02:24:18.850Z,20.59
2017-06-29T02:26:47.175Z,20.57
2017-06-29T02:29:16.269Z,20.39
2017-06-29T02:31:46.305Z,20.27
2017-06-29T02:34:14.645Z,20.21
2017-06-29T02:36:42.962Z,20.28
2017-06-29T02:39:11.613Z,20.28
2017-06-29T02:41:39.937Z,20.38
2017-06-29T02:44:08.274Z,20.46
2017-06-29T02:46:37.320Z,20.60
2017-06-29T02:49:05.657Z,20.50
2017-06-29T02:51:33.979Z,20.69
2017-06-29T02:54:02.621Z,20.83
2017-06-29T02:56:30.957Z,20.92
2017-06-29T02:58:59.285Z,20.91
2017-06-29T03:01:28.061Z,20.95
2017-06-29T03:03:56.400Z,20.88
2017-06-29T03:06:24.743Z,20.94
2017-06-29T03:08:53.681Z,20.98
2017-06-29T03:11:22.026Z,20.96
2017-06-29T03:13:50.362Z,21.05
2017-06-29T03:16:19.774Z,21.07
2017-06-29T03:18:48.113Z,20.98
2017-06-29T03:21:16.453Z,20.94
2017-06-29T03:23:45.130Z,20.70
2017-06-29T03:26:13.453Z,20.60
2017-06-29T03:28:41.796Z,20.84
2017-06-29T03:31:10.888Z,20.94
2017-06-29T03:33:39.240Z,21.02
2017-06-29T03:36:08.336Z,21.09
2017-06-29T03:38:36.995Z,21.16
2017-06-29T03:41:05.331Z,21.27
2017-06-29T03:43:33.689Z,21.18
2017-06-29T03:46:02.353Z,21.26
2017-06-29T03:48:30.702Z,21.38
2017-06-29T03:50:59.048Z,21.36
2017-06-29T03:53:28.042Z,21.48
2017-06-29T03:55:56.359Z,21.30
2017-06-29T03:58:24.699Z,21.32
2017-06-29T04:00:53.349Z,21.33
2017-06-29T04:03:21.700Z,21.18
2017-06-29T04:05:50.027Z,21.07
2017-06-29T04:08:18.818Z,21.01
2017-06-29T04:10:47.139Z,20.90
2017-06-29T04:13:15.481Z,21.04
2017-06-29T04:15:44.357Z,20.93
2017-06-29T04:18:12.706Z,20.77
2017-06-29T04:20:41.041Z,20.89
2017-06-29T04:23:09.830Z,20.80
2017-06-29T04:25:38.159Z,20.91
2017-06-29T04:28:06.504Z,20.90
2017-06-29T04:30:35.213Z,20.93
2017-06-29T04:33:03.614Z,20.80
2017-06-29T04:35:31.960Z,20.80
2017-06-29T04:38:01.085Z,20.67
2017-06-29T04:40:29.476Z,20.78
2017-06-29T04:42:58.569Z,20.91
2017-06-29T04:45:27.298Z,20.96
2017-06-29T04:47:55.711Z,21.13
2017-06-29T04:50:24.125Z,21.46
2017-06-29T04:52:52.865Z,21.57
2017-06-29T04:55:21.286Z,21.64
2017-06-29T04:57:49.662Z,21.57
2017-06-29T05:00:18.625Z,21.66
2017-06-29T05:02:47.019Z,21.82
2017-06-29T05:05:15.457Z,21.87
2017-06-29T05:07:44.366Z,21.99
2017-06-29T05:10:12.715Z,21.92
2017-06-29T05:12:41.059Z,21.91
2017-06-29T05:15:09.890Z,22.29
2017-06-29T05:17:38.265Z,22.42
2017-06-29T05:20:06.633Z,22.57
2017-06-29T05:22:36.249Z,22.73
2017-06-29T05:25:04.698Z,22.85
2017-06-29T05:27:33.177Z,23.06
2017-06-29T05:30:02.173Z,23.17
2017-06-29T05:32:30.766Z,23.36
2017-06-29T05:34:59.226Z,23.50
2017-06-29T05:37:28.075Z,23.65
2017-06-29T05:39:56.469Z,23.71
2017-06-29T05:42:24.804Z,23.74
2017-06-29T05:44:53.838Z,23.98
2017-06-29T05:47:22.172Z,24.26
2017-06-29T05:49:51.279Z,24.35
2017-06-29T05:52:20.889Z,24.35
2017-06-29T05:54:49.228Z,24.53
2017-06-29T05:57:17.583Z,24.56
2017-06-29T05:59:46.347Z,24.56
2017-06-29T06:02:14.687Z,24.67
2017-06-29T06:04:43.035Z,25.00
2017-06-29T06:07:11.972Z,25.16
2017-06-29T06:09:40.315Z,25.21
2017-06-29T06:12:08.661Z,25.30
2017-06-29T06:14:37.420Z,25.07
2017-06-29T06:17:05.769Z,24.62
2017-06-29T06:19:34.164Z,24.63
2017-06-29T06:22:03.105Z,24.84
2017-06-29T06:24:31.446Z,24.56
2017-06-29T06:26:59.803Z,24.49
2017-06-29T06:29:28.650Z,24.61
2017-06-29T06:31:56.997Z,24.68
2017-06-29T06:34:25.379Z,24.89
2017-06-29T06:36:54.767Z,25.06
2017-06-29T06:39:23.088Z,25.25
2017-06-29T06:41:51.420Z,25.61
2017-06-29T06:44:20.042Z,25.80
2017-06-29T06:46:48.390Z,25.89
2017-06-29T06:49:16.744Z,26.06
2017-06-29T06:51:45.971Z,26.16
2017-06-29T06:54:14.296Z,26.13
2017-06-29T06:56:42.634Z,26.16
2017-06-29T06:59:11.270Z,26.20
2017-06-29T07:01:39.618Z,26.16
2017-06-29T07:04:07.996Z,26.22
2017-06-29T07:06:36.784Z,26.38
2017-06-29T07:09:05.142Z,26.01
2017-06-29T07:11:34.261Z,26.32
2017-06-29T07:14:03.254Z,26.45
2017-06-29T07:16:31.642Z,26.25
2017-06-29T07:19:00.022Z,26.51
2017-06-29T07:21:28.675Z,26.15
2017-06-29T07:23:57.054Z,25.92
2017-06-29T07:26:26.194Z,25.91
2017-06-29T07:28:54.810Z,26.33
2017-06-29T07:31:23.158Z,26.60
2017-06-29T07:33:51.490Z,26.91
2017-06-29T07:36:20.380Z,26.86
2017-06-29T07:38:48.724Z,26.80
2017-06-29T07:41:17.053Z,26.69
2017-06-29T07:43:46.497Z,26.92
2017-06-29T07:46:14.915Z,27.24
2017-06-29T07:48:43.307Z,26.99
2017-06-29T07:51:12.936Z,27.27
2017-06-29T07:53:41.283Z,27.20
2017-06-29T07:56:09.635Z,27.27
2017-06-29T07:58:38.490Z,27.19
2017-06-29T08:01:06.830Z,26.95
2017-06-29T08:03:35.174Z,26.57
2017-06-29T08:06:04.011Z,26.80
2017-06-29T08:08:32.350Z,27.16
2017-06-29T08:11:00.677Z,27.24
2017-06-29T08:13:29.345Z,27.12
2017-06-29T08:15:57.698Z,26.86
2017-06-29T08:18:26.048Z,26.58
2017-06-29T08:20:55.316Z,26.50
2017-06-29T08:23:23.691Z,26.91
2017-06-29T08:25:52.036Z,27.57
2017-06-29T08:28:20.683Z,27.88
2017-06-29T08:30:49.057Z,28.06
2017-06-29T08:33:17.389Z,28.14
2017-06-29T08:35:46.236Z,28.66
2017-06-29T08:38:14.576Z,28.78
2017-06-29T08:40:42.916Z,28.53
2017-06-29T08:43:11.848Z,29.07
2017-06-29T08:45:40.257Z,28.93
2017-06-29T08:48:08.605Z,29.16
2017-06-29T08:50:37.509Z,29.34
2017-06-29T08:53:05.861Z,29.95
2017-06-29T08:55:34.223Z,29.76
2017-06-29T08:58:02.837Z,29.70
2017-06-29T09:00:31.183Z,29.71
2017-06-29T09:02:59.547Z,29.87
2017-06-29T09:05:28.262Z,29.91
2017-06-29T09:07:56.642Z,29.93
2017-06-29T09:10:25.025Z,30.08
2017-06-29T09:12:53.870Z,29.72
2017-06-29T09:15:22.248Z,29.68
2017-06-29T09:17:50.598Z,28.84
2017-06-29T09:20:19.231Z,28.88
2017-06-29T09:22:47.565Z,28.75
2017-06-29T09:25:15.938Z,28.86
2017-06-29T09:27:45.208Z,28.69
2017-06-29T09:30:13.577Z,28.68
2017-06-29T09:32:42.234Z,28.91
2017-06-29T09:35:10.980Z,28.60
2017-06-29T09:37:39.367Z,28.74
2017-06-29T09:40:07.725Z,28.89
2017-06-29T09:42:36.683Z,28.60
2017-06-29T09:45:05.033Z,28.50
2017-06-29T09:47:34.198Z,28.57
2017-06-29T09:50:03.006Z,28.71
2017-06-29T09:52:31.393Z,28.98
2017-06-29T09:54:59.746Z,29.24
2017-06-29T09:57:28.699Z,29.77
2017-06-29T09:59:57.103Z,29.97
2017-06-29T10:02:25.466Z,30.14
2017-06-29T10:04:54.132Z,30.49
2017-06-29T10:07:22.490Z,30.75
2017-06-29T10:09:50.837Z,30.53
2017-06-29T10:12:19.893Z,30.03
2017-06-29T10:14:48.272Z,30.14
2017-06-29T10:17:16.633Z,30.60
2017-06-29T10:19:45.337Z,30.92
2017-06-29T10:22:13.686Z,31.20
2017-06-29T10:24:42.137Z,31.11
2017-06-29T10:27:10.846Z,30.63
2017-06-29T10:29:39.296Z,30.51
2017-06-29T10:32:07.690Z,30.54
2017-06-29T10:34:37.049Z,30.88
2017-06-29T10:37:05.418Z,30.50
2017-06-29T10:39:33.849Z,30.35
2017-06-29T10:42:02.718Z,31.00
2017-06-29T10:44:31.066Z,31.07
2017-06-29T10:46:59.416Z,31.06
2017-06-29T10:49:28.400Z,30.98
2017-06-29T10:51:56.744Z,31.28
2017-06-29T10:54:25.101Z,31.20
2017-06-29T10:56:54.231Z,30.89
2017-06-29T10:59:22.589Z,30.54
2017-06-29T11:01:51.009Z,30.71
2017-06-29T11:04:19.686Z,30.93
2017-06-29T11:06:48.027Z,30.86
2017-06-29T11:09:16.387Z,30.58
2017-06-29T11:11:45.287Z,30.41
2017-06-29T11:14:13.637Z,30.67
2017-06-29T11:16:41.955Z,31.10
2017-06-29T11:19:11.349Z,31.22
2017-06-29T11:21:39.729Z,31.22
2017-06-29T11:24:08.086Z,31.20
2017-06-29T11:26:36.736Z,31.04
2017-06-29T11:29:05.066Z,30.97
2017-06-29T11:31:33.523Z,31.11
2017-06-29T11:34:02.547Z,31.53
2017-06-29T11:36:30.895Z,31.98
2017-06-29T11:38:59.239Z,32.03
2017-06-29T11:41:27.915Z,31.83
2017-06-29T11:43:56.276Z,31.51
2017-06-29T11:46:24.617Z,31.32
2017-06-29T11:48:53.407Z,31.24
2017-06-29T11:51:22.530Z,31.17
2017-06-29T11:53:50.887Z,31.59
2017-06-29T11:56:19.554Z,31.89
2017-06-29T11:58:47.893Z,31.89
2017-06-29T12:01:16.211Z,31.92
2017-06-29T12:03:45.043Z,32.12
2017-06-29T12:06:13.359Z,32.52
2017-06-29T12:08:41.702Z,32.86
2017-06-29T12:11:10.316Z,33.13
2017-06-29T12:13:38.680Z,33.36
2017-06-29T12:16:07.032Z,33.33
2017-06-29T12:18:35.730Z,32.98
2017-06-29T12:21:04.079Z,33.12
2017-06-29T12:23:32.421Z,33.22
2017-06-29T12:26:01.381Z,32.95
2017-06-29T12:28:29.722Z,33.05
2017-06-29T12:30:58.074Z,33.00
2017-06-29T12:33:26.836Z,33.01
2017-06-29T12:35:55.166Z,33.19
2017-06-29T12:38:23.530Z,33.09
2017-06-29T12:40:52.209Z,33.37
2017-06-29T12:43:20.552Z,33.27
2017-06-29T12:45:48.894Z,32.91
2017-06-29T12:48:17.921Z,32.95
2017-06-29T12:50:46.263Z,32.71
2017-06-29T12:53:14.598Z,32.42
2017-06-29T12:55:43.219Z,32.46
2017-06-29T12:58:11.595Z,32.29
2017-06-29T13:00:39.942Z,32.46
2017-06-29T13:03:08.814Z,32.48
2017-06-29T13:05:37.150Z,32.20
2017-06-29T13:08:05.505Z,32.16
2017-06-29T13:10:34.346Z,31.69
2017-06-29T13:13:03.451Z,31.95
2017-06-29T13:15:31.831Z,32.04
2017-06-29T13:18:00.478Z,31.78
2017-06-29T13:20:28.826Z,31.48
2017-06-29T13:25:31.943Z,31.36
2017-06-29T13:28:00.274Z,31.38
2017-06-29T13:30:28.634Z,31.36
2017-06-29T13:32:57.418Z,31.40
2017-06-29T13:35:25.793Z,31.57
2017-06-29T13:37:54.132Z,31.55
2017-06-29T13:40:22.994Z,31.16
2017-06-29T13:42:51.336Z,31.07
2017-06-29T13:45:19.648Z,30.91
2017-06-29T13:47:48.457Z,30.97
2017-06-29T13:50:16.790Z,31.18
2017-06-29T13:52:45.157Z,30.89
2017-06-29T13:55:14.301Z,30.39
2017-06-29T13:57:42.642Z,30.41
2017-06-29T14:00:10.995Z,30.20
2017-06-29T14:02:39.737Z,29.93
2017-06-29T14:05:08.105Z,30.20
2017-06-29T14:07:36.437Z,30.00
2017-06-29T14:10:05.223Z,30.09
2017-06-29T14:12:33.577Z,30.19
2017-06-29T14:15:01.901Z,29.69
2017-06-29T14:17:30.975Z,29.53
2017-06-29T14:19:59.332Z,29.35
2017-06-29T14:22:27.694Z,29.25
2017-06-29T14:24:56.352Z,28.98
2017-06-29T14:27:24.714Z,29.11
2017-06-29T14:29:53.043Z,28.98
2017-06-29T14:32:21.652Z,28.88
2017-06-29T14:34:49.993Z,28.96
2017-06-29T14:37:18.339Z,28.87
2017-06-29T14:39:47.167Z,28.84
2017-06-29T14:42:15.523Z,28.73
2017-06-29T14:44:43.889Z,28.58
2017-06-29T14:47:12.639Z,28.33
2017-06-29T14:49:40.988Z,28.37
2017-06-29T14:52:09.336Z,28.50
2017-06-29T14:54:37.975Z,28.33
2017-06-29T14:57:06.329Z,28.01
2017-06-29T14:59:34.660Z,27.77
2017-06-29T15:02:03.442Z,27.97
2017-06-29T15:04:31.794Z,27.95
2017-06-29T15:07:00.153Z,27.86
2017-06-29T15:09:28.824Z,28.06
2017-06-29T15:11:57.182Z,28.26
2017-06-29T15:14:25.520Z,28.43
2017-06-29T15:16:54.186Z,28.27
2017-06-29T15:19:22.539Z,28.45
2017-06-29T15:21:50.880Z,28.65
2017-06-29T15:24:20.084Z,28.58
2017-06-29T15:26:48.433Z,28.61
2017-06-29T15:29:16.778Z,28.44
2017-06-29T15:31:45.422Z,28.44
2017-06-29T15:34:13.797Z,28.36
2017-06-29T15:36:42.183Z,28.26
2017-06-29T15:39:11.163Z,28.18
2017-06-29T15:41:39.491Z,28.11
2017-06-29T15:44:07.855Z,28.11
2017-06-29T15:46:37.198Z,28.21
2017-06-29T15:49:05.579Z,27.98
2017-06-29T15:51:34.707Z,28.07
2017-06-29T15:54:03.369Z,27.89
2017-06-29T15:56:31.734Z,27.75
2017-06-29T15:59:00.058Z,27.86
2017-06-29T16:01:28.944Z,27.80
2017-06-29T16:03:57.298Z,27.82
2017-06-29T16:06:25.649Z,27.75
2017-06-29T16:08:54.521Z,27.63
2017-06-29T16:11:22.894Z,27.74
2017-06-29T16:13:51.246Z,27.45
2017-06-29T16:16:20.007Z,27.29
2017-06-29T16:18:48.376Z,27.27
2017-06-29T16:21:17.490Z,27.46
2017-06-29T16:23:46.098Z,27.40
2017-06-29T16:26:14.476Z,27.44
2017-06-29T16:28:42.829Z,27.56
2017-06-29T16:31:11.623Z,27.53
2017-06-29T16:33:39.966Z,27.50
2017-06-29T16:36:08.342Z,27.03
2017-06-29T16:38:37.005Z,26.54
2017-06-29T16:41:05.362Z,26.18
2017-06-29T16:43:33.707Z,25.80
2017-06-29T16:46:02.362Z,25.61
2017-06-29T16:48:30.751Z,25.55
2017-06-29T16:50:59.130Z,25.39
2017-06-29T16:53:28.088Z,25.72
2017-06-29T16:55:56.452Z,25.58
2017-06-29T16:58:24.874Z,25.28
2017-06-29T17:00:53.718Z,25.15
2017-06-29T17:03:22.071Z,25.00
2017-06-29T17:05:51.232Z,24.94
2017-06-29T17:08:19.976Z,24.66
2017-06-29T17:10:48.323Z,24.43
2017-06-29T17:13:16.680Z,24.53
2017-06-29T17:15:45.812Z,24.51
2017-06-29T17:18:14.145Z,24.47
2017-06-29T17:20:42.482Z,24.30
2017-06-29T17:23:11.135Z,24.50
2017-06-29T17:25:39.498Z,24.54
2017-06-29T17:28:07.903Z,24.41
2017-06-29T17:30:36.602Z,24.59
2017-06-29T17:33:05.722Z,24.45
2017-06-29T17:35:34.066Z,24.35
2017-06-29T17:38:02.986Z,24.27
2017-06-29T17:40:31.324Z,24.17
2017-06-29T17:42:59.682Z,24.10
2017-06-29T17:45:28.349Z,24.24
2017-06-29T17:47:56.698Z,24.14
2017-06-29T17:50:25.040Z,24.24
2017-06-29T17:52:53.803Z,24.15
2017-06-29T17:55:22.163Z,24.13
2017-06-29T17:57:50.499Z,24.17
2017-06-29T18:00:20.106Z,24.05
2017-06-29T18:02:48.451Z,23.92
2017-06-29T18:05:16.798Z,23.97
2017-06-29T18:07:45.586Z,23.86
2017-06-29T18:10:13.977Z,23.91
2017-06-29T18:12:42.349Z,23.78
2017-06-29T18:15:11.055Z,23.65
2017-06-29T18:17:39.454Z,23.80
2017-06-29T18:20:07.801Z,23.61
2017-06-29T18:22:36.776Z,23.29
2017-06-29T18:25:05.116Z,23.13
2017-06-29T18:27:33.462Z,23.07
2017-06-29T18:30:02.110Z,23.10
2017-06-29T18:32:30.462Z,23.12
2017-06-29T18:34:58.798Z,22.93
2017-06-29T18:37:27.550Z,22.94
2017-06-29T18:39:55.936Z,22.86
2017-06-29T18:42:25.124Z,22.86
2017-06-29T18:44:53.866Z,23.07
2017-06-29T18:47:22.210Z,22.96
2017-06-29T18:49:50.558Z,23.01
2017-06-29T18:52:19.241Z,23.12
2017-06-29T18:54:47.651Z,23.07
2017-06-29T18:57:16.749Z,22.84
2017-06-29T18:59:45.549Z,22.90
2017-06-29T19:02:13.953Z,22.86
2017-06-29T19:04:42.310Z,22.64
2017-06-29T19:07:11.204Z,22.51
2017-06-29T19:09:39.578Z,22.59
2017-06-29T19:12:07.931Z,22.59
2017-06-29T19:14:36.601Z,22.65
2017-06-29T19:17:04.940Z,22.34
2017-06-29T19:19:33.281Z,22.48
2017-06-29T19:22:02.919Z,22.61
2017-06-29T19:24:31.296Z,22.59
2017-06-29T19:26:59.656Z,22.74
2017-06-29T19:29:28.567Z,22.67
2017-06-29T19:31:56.923Z,22.73
2017-06-29T19:34:26.051Z,22.50
2017-06-29T19:36:54.671Z,22.58
2017-06-29T19:39:23.028Z,22.52
2017-06-29T19:41:51.431Z,22.50
2017-06-29T19:44:20.128Z,22.34
2017-06-29T19:46:48.471Z,22.47
2017-06-29T19:49:16.881Z,22.55
2017-06-29T19:51:45.730Z,22.46
2017-06-29T19:54:14.073Z,22.44
2017-06-29T19:56:43.169Z,22.50
2017-06-29T19:59:12.533Z,22.34
2017-06-29T20:01:40.863Z,22.30
2017-06-29T20:04:09.234Z,22.26
2017-06-29T20:06:37.848Z,22.21
2017-06-29T20:09:06.196Z,22.31
2017-06-29T20:11:35.298Z,22.31
2017-06-29T20:14:04.241Z,22.45
2017-06-29T20:16:32.643Z,22.54
2017-06-29T20:19:01.002Z,22.62
2017-06-29T20:21:29.757Z,22.60
2017-06-29T20:23:58.172Z,22.48
2017-06-29T20:26:26.583Z,22.44
2017-06-29T20:30:13.620Z,22.48
2017-06-29T20:32:41.972Z,22.44
2017-06-29T20:35:10.309Z,22.36
2017-06-29T20:37:39.064Z,22.41
2017-06-29T20:40:07.409Z,22.44
2017-06-29T20:42:35.758Z,22.46
2017-06-29T20:45:04.411Z,22.28
2017-06-29T20:47:33.506Z,22.28
2017-06-29T20:50:02.611Z,22.32
2017-06-29T20:52:31.454Z,22.33
2017-06-29T20:54:59.814Z,22.51
2017-06-29T20:57:28.160Z,22.27
2017-06-29T20:59:56.785Z,22.23
2017-06-29T21:02:25.108Z,22.09
2017-06-29T21:04:53.453Z,22.17
2017-06-29T21:07:22.187Z,22.10
2017-06-29T21:09:50.547Z,22.15
2017-06-29T21:12:18.925Z,22.10
2017-06-29T21:14:48.506Z,22.17
2017-06-29T21:17:16.870Z,22.19
2017-06-29T21:19:45.230Z,22.03
2017-06-29T21:22:13.864Z,22.11
2017-06-29T21:24:42.212Z,22.06
2017-06-29T21:27:11.262Z,21.83
2017-06-29T21:29:40.261Z,21.78
2017-06-29T21:32:08.631Z,21.55
2017-06-29T21:34:37.737Z,21.47
2017-06-29T21:37:06.594Z,21.47
2017-06-29T21:39:35.282Z,21.44
2017-06-29T21:42:03.649Z,21.44
2017-06-29T21:44:32.288Z,21.29
2017-06-29T21:47:00.637Z,21.31
2017-06-29T21:49:28.992Z,21.45
2017-06-29T21:51:57.604Z,21.41
2017-06-29T21:54:25.932Z,21.31
2017-06-29T21:56:54.264Z,21.26
2017-06-29T21:59:23.649Z,21.16
2017-06-29T22:01:51.968Z,20.93
2017-06-29T22:04:20.329Z,21.19
2017-06-29T22:06:49.114Z,21.38
2017-06-29T22:09:17.458Z,21.45
2017-06-29T22:11:45.796Z,21.56
2017-06-29T22:14:14.429Z,21.60
2017-06-29T22:16:42.786Z,21.64
2017-06-29T22:19:11.141Z,21.23
2017-06-29T22:21:40.154Z,21.21
2017-06-29T22:24:08.484Z,21.36
2017-06-29T22:26:36.828Z,21.39
2017-06-29T22:29:05.667Z,21.36
2017-06-29T22:31:34.026Z,21.54
2017-06-29T22:34:02.404Z,21.79
2017-06-29T22:36:31.144Z,21.88
2017-06-29T22:38:59.492Z,21.91
2017-06-29T22:41:27.818Z,21.82
2017-06-29T22:43:56.577Z,21.86
2017-06-29T22:46:25.135Z,21.68
2017-06-29T22:48:54.258Z,21.66
2017-06-29T22:51:23.251Z,21.46
2017-06-29T22:53:51.617Z,21.62
2017-06-29T22:56:19.975Z,21.68
2017-06-29T22:58:48.599Z,21.58
2017-06-29T23:01:16.954Z,21.27
2017-06-29T23:03:45.314Z,21.21
2017-06-29T23:06:14.850Z,21.25
2017-06-29T23:08:43.237Z,21.08
2017-06-29T23:11:11.574Z,21.08
2017-06-29T23:13:40.311Z,21.09
2017-06-29T23:16:08.646Z,21.14
2017-06-29T23:18:36.984Z,21.15
2017-06-29T23:21:05.836Z,21.16
2017-06-29T23:23:34.154Z,21.06
2017-06-29T23:26:02.478Z,21.24
2017-06-29T23:28:31.222Z,21.17
2017-06-29T23:30:59.540Z,21.15
2017-06-29T23:33:27.876Z,21.23
2017-06-29T23:35:56.572Z,21.11
2017-06-29T23:38:24.910Z,20.78
2017-06-29T23:40:53.491Z,20.78
2017-06-29T23:43:22.148Z,20.74
2017-06-29T23:45:50.507Z,20.89
2017-06-29T23:48:18.829Z,20.85
2017-06-29T23:50:47.658Z,20.83
2017-06-29T23:53:15.991Z,20.91
2017-06-29T23:55:44.327Z,20.82
2017-06-29T23:58:13.002Z,20.74
